Time;durP1;ratioP1;P1;durP2;ratioP2;P2;SDS_P1;SDS_P2;PMS_P1;PMS_P2;Temp;Humidity;BMP_temperature;BMP_pressure;BME280_temperature;BME280_humidity;BME280_pressure;Samples;Min_cycle;Max_cycle;Signal;HPM_P1;HPM_P2
2023/09/23 00:00:08;;;;;;;3.87;1.87;;;;;;;14.12;75.62;99870.94;5096073;28;20657;-75
2023/09/23 00:02:40;;;;;;;3.30;1.70;;;;;;;14.12;75.71;99876.31;5095814;28;20670;-75
2023/09/23 00:05:09;;;;;;;2.73;1.30;;;;;;;14.07;75.88;99884.19;5096110;28;20205;-75
2023/09/23 00:07:38;;;;;;;3.40;1.40;;;;;;;13.94;75.97;99886.84;5096077;28;20236;-75
2023/09/23 00:10:08;;;;;;;1.30;1.20;;;;;;;13.99;76.36;99882.50;5096012;28;20215;-75
2023/09/23 00:12:37;;;;;;;2.03;1.30;;;;;;;13.89;76.45;99900.91;5095916;28;20231;-75
2023/09/23 00:15:07;;;;;;;1.40;1.30;;;;;;;13.98;76.33;99893.47;5095607;28;20636;-75
2023/09/23 00:17:38;;;;;;;1.40;1.30;;;;;;;13.93;76.74;99901.34;5095676;28;20300;-75
2023/09/23 00:20:14;;;;;;;2.97;1.40;;;;;;;13.96;76.86;99906.31;5095936;28;20204;-75
2023/09/23 00:22:45;;;;;;;3.30;1.57;;;;;;;14.00;76.81;99903.03;5095846;28;20197;-75
2023/09/23 00:25:16;;;;;;;1.27;1.17;;;;;;;14.01;76.50;99914.59;5095684;28;20209;-75
2023/09/23 00:27:45;;;;;;;2.10;1.30;;;;;;;13.96;77.15;99917.06;5095738;28;20196;-75
2023/09/23 00:30:14;;;;;;;4.17;1.50;;;;;;;13.93;76.95;99922.88;5095656;28;20228;-75
2023/09/23 00:32:44;;;;;;;1.83;1.27;;;;;;;13.93;76.85;99922.88;5095418;28;20263;-75
2023/09/23 00:35:12;;;;;;;1.57;1.20;;;;;;;13.84;77.33;99929.44;5095487;28;20714;-75
2023/09/23 00:37:41;;;;;;;2.00;1.30;;;;;;;13.80;77.63;99929.00;5095538;28;20262;-75
2023/09/23 00:40:17;;;;;;;2.93;1.43;;;;;;;13.84;77.52;99934.81;5095478;28;20237;-75
2023/09/23 00:42:47;;;;;;;1.87;1.23;;;;;;;13.75;77.77;99930.66;5095617;28;20232;-75
2023/09/23 00:45:17;;;;;;;3.70;1.47;;;;;;;13.86;77.46;99932.78;5095011;28;20263;-75
2023/09/23 00:47:47;;;;;;;2.87;1.50;;;;;;;13.94;77.81;99936.09;5095308;28;20209;-75
2023/09/23 00:50:19;;;;;;;2.63;1.60;;;;;;;13.69;78.04;99935.81;5094834;28;20209;-75
2023/09/23 00:52:51;;;;;;;2.80;1.60;;;;;;;13.80;77.89;99938.97;5094856;28;20745;-75
2023/09/23 00:55:22;;;;;;;1.77;1.30;;;;;;;13.75;77.98;99938.72;5095182;28;20185;-75
2023/09/23 00:57:53;;;;;;;2.40;1.30;;;;;;;13.65;78.24;99941.78;5094299;28;20258;-75
2023/09/23 01:00:26;;;;;;;3.00;1.40;;;;;;;13.49;79.27;99948.28;5095190;28;20188;-75
2023/09/23 01:02:55;;;;;;;2.43;1.20;;;;;;;13.40;79.43;99945.97;5094656;28;20263;-75
2023/09/23 01:05:27;;;;;;;1.63;1.47;;;;;;;13.39;79.69;99947.81;5094656;28;20663;-75
2023/09/23 01:07:56;;;;;;;1.63;1.20;;;;;;;13.36;80.05;99947.38;5094938;28;20189;-75
2023/09/23 01:10:26;;;;;;;1.77;1.30;;;;;;;13.32;80.19;99952.31;5094547;28;20204;-75
2023/09/23 01:12:54;;;;;;;2.50;1.37;;;;;;;13.32;80.49;99952.31;5094425;28;20779;-75
2023/09/23 01:15:25;;;;;;;4.13;1.40;;;;;;;13.31;80.04;99956.06;5094795;28;20215;-75
2023/09/23 01:17:57;;;;;;;2.47;1.53;;;;;;;13.37;80.28;99957.97;5094695;28;20248;-75
2023/09/23 01:20:26;;;;;;;2.30;1.60;;;;;;;13.38;80.30;99956.09;5094399;28;20186;-75
2023/09/23 01:22:56;;;;;;;3.07;1.40;;;;;;;13.45;79.92;99955.13;5094302;28;20235;-75
2023/09/23 01:25:24;;;;;;;3.27;1.50;;;;;;;13.37;79.95;99959.81;5094393;28;20228;-75
2023/09/23 01:27:53;;;;;;;3.00;1.57;;;;;;;13.41;80.26;99961.91;5094288;28;20755;-75
2023/09/23 01:30:21;;;;;;;1.90;1.40;;;;;;;13.43;80.53;99965.22;5094202;28;20645;-75
2023/09/23 01:32:51;;;;;;;2.47;1.50;;;;;;;13.36;80.15;99969.72;5093988;28;20761;-75
2023/09/23 01:35:21;;;;;;;2.00;1.47;;;;;;;13.35;80.95;99968.09;5094040;28;20201;-75
2023/09/23 01:37:51;;;;;;;3.10;1.37;;;;;;;13.29;80.47;99979.59;5094264;28;20257;-75
2023/09/23 01:40:21;;;;;;;3.83;1.60;;;;;;;13.36;80.85;99979.66;5094563;28;20292;-75
2023/09/23 01:42:50;;;;;;;2.47;1.30;;;;;;;13.37;80.92;99976.78;5094106;28;20287;-75
2023/09/23 01:45:19;;;;;;;2.47;1.57;;;;;;;13.39;80.75;99974.72;5094150;28;20315;-75
2023/09/23 01:47:49;;;;;;;1.93;1.40;;;;;;;13.43;80.42;99980.53;5094222;28;20204;-75
2023/09/23 01:50:18;;;;;;;2.83;1.47;;;;;;;13.44;80.32;99982.19;5094112;28;20224;-75
2023/09/23 01:52:47;;;;;;;1.83;1.30;;;;;;;13.37;80.59;99978.63;5094001;28;20303;-75
2023/09/23 01:55:17;;;;;;;2.30;1.30;;;;;;;13.39;81.07;99985.47;5094089;28;20201;-75
2023/09/23 01:57:48;;;;;;;2.73;1.33;;;;;;;13.37;80.79;99982.16;5094029;28;20258;-75
2023/09/23 02:00:21;;;;;;;1.47;1.13;;;;;;;13.40;80.92;99979.06;5093895;28;20197;-75
2023/09/23 02:02:53;;;;;;;2.80;1.50;;;;;;;13.42;80.53;99990.47;5093888;28;20654;-75
2023/09/23 02:05:27;;;;;;;2.60;1.37;;;;;;;13.44;80.61;99988.41;5093871;28;20236;-75
2023/09/23 02:07:56;;;;;;;2.50;1.60;;;;;;;13.43;80.46;99997.50;5093949;28;20189;-75
2023/09/23 02:10:28;;;;;;;1.43;1.30;;;;;;;13.39;80.31;99985.47;5093735;28;20258;-75
2023/09/23 02:12:58;;;;;;;3.30;1.43;;;;;;;13.44;80.74;100001.84;5093998;28;20256;-75
2023/09/23 02:15:27;;;;;;;2.10;1.30;;;;;;;13.38;80.60;99999.13;5093954;28;20236;-75
2023/09/23 02:17:55;;;;;;;2.40;1.60;;;;;;;13.40;80.68;100008.66;5093745;28;20307;-75
2023/09/23 02:20:24;;;;;;;2.23;1.40;;;;;;;13.37;80.94;100002.81;5093690;28;20216;-75
2023/09/23 02:22:54;;;;;;;2.70;1.50;;;;;;;13.36;80.44;100007.38;5093312;28;20610;-75
2023/09/23 02:25:24;;;;;;;1.93;1.20;;;;;;;13.36;80.64;100012.75;5093641;28;20228;-75
2023/09/23 02:27:54;;;;;;;2.93;1.50;;;;;;;13.35;80.62;100011.09;5093628;28;20191;-75
2023/09/23 02:30:25;;;;;;;1.70;1.30;;;;;;;13.38;80.79;100015.25;5093614;28;20236;-75
2023/09/23 02:32:54;;;;;;;3.63;1.23;;;;;;;13.33;80.90;100015.84;5093514;28;20293;-75
2023/09/23 02:35:25;;;;;;;1.90;1.33;;;;;;;13.36;80.79;100018.13;5093420;28;20200;-75
2023/09/23 02:37:54;;;;;;;2.53;1.30;;;;;;;13.35;80.76;100016.47;5093207;28;20647;-75
2023/09/23 02:40:27;;;;;;;2.70;1.43;;;;;;;13.38;80.37;100015.25;5093160;28;20570;-75
2023/09/23 02:42:59;;;;;;;3.50;1.60;;;;;;;13.34;80.68;100012.13;5093278;28;20290;-75
2023/09/23 02:45:31;;;;;;;2.13;1.37;;;;;;;13.34;80.92;100025.56;5093439;28;20240;-75
2023/09/23 02:48:00;;;;;;;1.77;1.43;;;;;;;13.34;80.58;100014.81;5093522;28;20282;-75
2023/09/23 02:50:28;;;;;;;1.60;1.33;;;;;;;13.34;80.12;100016.66;5093115;28;20682;-75
2023/09/23 02:52:59;;;;;;;3.87;1.50;;;;;;;13.28;80.35;100031.72;5092998;28;20797;-75
2023/09/23 02:55:28;;;;;;;2.37;1.40;;;;;;;13.28;80.54;100031.72;5093443;28;20231;-75
2023/09/23 02:57:56;;;;;;;3.23;1.80;;;;;;;13.25;80.26;100034.81;5093226;28;20208;-75
2023/09/23 03:00:29;;;;;;;2.13;1.53;;;;;;;13.29;80.30;100036.06;5092960;28;20761;-75
2023/09/23 03:03:02;;;;;;;3.57;1.60;;;;;;;13.28;80.31;100037.09;5093272;28;20233;-75
2023/09/23 03:05:34;;;;;;;2.77;1.90;;;;;;;13.22;79.02;100043.25;5093249;28;20250;-75
2023/09/23 03:08:02;;;;;;;2.63;1.80;;;;;;;13.16;79.49;100044.03;5093230;28;20189;-75
2023/09/23 03:10:39;;;;;;;2.17;1.63;;;;;;;13.26;78.96;100049.91;5093272;28;20243;-75
2023/09/23 03:13:11;;;;;;;2.37;1.90;;;;;;;13.29;79.00;100046.81;5093126;28;20228;-75
2023/09/23 03:15:44;;;;;;;2.33;1.87;;;;;;;13.26;78.93;100054.44;5093171;28;20268;-75
2023/09/23 03:18:15;;;;;;;2.30;1.80;;;;;;;13.22;78.55;100064.75;5092908;28;20605;-75
2023/09/23 03:20:44;;;;;;;2.93;1.90;;;;;;;13.19;78.83;100070.50;5093664;28;20742;-75
2023/09/23 03:23:13;;;;;;;2.47;2.27;;;;;;;13.14;77.98;100065.72;5096888;28;20228;-75
2023/09/23 03:25:46;;;;;;;3.10;2.33;;;;;;;13.07;78.29;100066.66;5097087;28;20231;-75
2023/09/23 03:28:16;;;;;;;2.83;2.27;;;;;;;13.08;77.32;100065.66;5097170;28;20220;-75
2023/09/23 03:30:47;;;;;;;3.30;2.57;;;;;;;13.13;77.27;100074.81;5096823;28;20211;-75
2023/09/23 03:33:19;;;;;;;2.73;1.90;;;;;;;13.08;77.21;100081.75;5096596;28;20595;-75
2023/09/23 03:35:49;;;;;;;4.00;2.77;;;;;;;13.05;77.31;100087.50;5096828;28;20195;-75
2023/09/23 03:38:17;;;;;;;2.97;2.50;;;;;;;13.03;76.66;100090.41;5096712;28;20640;-75
2023/09/23 03:40:52;;;;;;;3.57;3.17;;;;;;;13.03;76.75;100092.25;5096615;28;20240;-75
2023/09/23 03:43:20;;;;;;;3.80;3.07;;;;;;;12.98;76.94;100105.44;5096586;28;20234;-75
2023/09/23 03:45:51;;;;;;;4.43;3.80;;;;;;;13.00;76.98;100100.69;5096512;28;20594;-75
2023/09/23 03:48:21;;;;;;;4.00;3.70;;;;;;;12.94;76.69;100109.53;5096174;28;20569;-75
2023/09/23 03:50:53;;;;;;;4.40;4.03;;;;;;;12.92;76.94;100116.94;5096299;28;20236;-75
2023/09/23 03:53:22;;;;;;;4.37;3.83;;;;;;;12.98;76.96;100117.00;5096358;28;20261;-75
2023/09/23 03:55:54;;;;;;;5.03;4.57;;;;;;;12.91;76.92;100120.66;5096363;28;20209;-75
2023/09/23 03:58:24;;;;;;;4.60;4.20;;;;;;;12.91;76.81;100128.72;5096310;28;20217;-75
2023/09/23 04:00:55;;;;;;;4.70;4.30;;;;;;;12.91;76.82;100126.84;5096256;28;20196;-75
2023/09/23 04:03:25;;;;;;;4.63;4.23;;;;;;;12.97;76.70;100144.06;5096281;28;20253;-75
2023/09/23 04:05:55;;;;;;;4.97;4.30;;;;;;;12.94;76.86;100144.44;5095805;28;20690;-75
2023/09/23 04:08:23;;;;;;;4.40;4.00;;;;;;;12.97;77.32;100149.44;5095826;28;20205;-75
2023/09/23 04:10:52;;;;;;;4.87;4.30;;;;;;;12.98;76.96;100145.75;5096086;28;20204;-75
2023/09/23 04:13:20;;;;;;;4.47;4.10;;;;;;;12.95;77.42;100143.41;5095928;28;20221;-75
2023/09/23 04:15:49;;;;;;;5.63;3.57;;;;;;;12.96;77.29;100150.47;5095667;28;20720;-75
2023/09/23 04:18:18;;;;;;;4.30;3.87;;;;;;;12.90;77.74;100168.19;5095928;28;20200;-75
2023/09/23 04:20:50;;;;;;;4.60;3.70;;;;;;;12.93;77.39;100172.34;5095866;28;20204;-75
2023/09/23 04:23:19;;;;;;;4.00;3.53;;;;;;;12.89;77.71;100173.72;5095785;28;20240;-75
2023/09/23 04:25:49;;;;;;;4.03;3.67;;;;;;;12.84;77.95;100181.53;5095660;28;20201;-75
2023/09/23 04:28:19;;;;;;;3.33;3.13;;;;;;;12.82;78.26;100180.88;5096035;28;20274;-75
2023/09/23 04:30:47;;;;;;;3.73;3.43;;;;;;;12.86;77.92;100180.31;5095950;28;20284;-75
2023/09/23 04:33:15;;;;;;;3.90;3.60;;;;;;;12.88;78.44;100185.50;5093936;28;20319;-75
2023/09/23 04:35:44;;;;;;;3.93;3.20;;;;;;;12.89;78.41;100197.91;5095689;28;20201;-75
2023/09/23 04:38:14;;;;;;;3.43;3.17;;;;;;;12.87;79.00;100199.97;5095565;28;20232;-75
2023/09/23 04:40:43;;;;;;;4.43;3.50;;;;;;;12.91;79.44;100195.88;5095833;28;20200;-75
2023/09/23 04:43:12;;;;;;;3.47;3.17;;;;;;;12.81;79.79;100195.34;5095479;28;20630;-75
2023/09/23 04:45:40;;;;;;;3.43;3.13;;;;;;;12.82;79.48;100200.50;5094979;28;20724;-75
2023/09/23 04:48:09;;;;;;;2.87;2.60;;;;;;;12.78;80.55;100207.28;5095308;28;20227;-75
2023/09/23 04:50:39;;;;;;;3.30;3.00;;;;;;;12.78;80.16;100209.13;5094892;28;20267;-75
2023/09/23 04:53:08;;;;;;;3.40;3.10;;;;;;;12.76;80.80;100219.25;5095168;28;20227;-75
2023/09/23 04:55:38;;;;;;;4.50;3.07;;;;;;;12.80;80.54;100220.53;5094839;28;20201;-75
2023/09/23 04:58:09;;;;;;;3.17;2.93;;;;;;;12.83;80.98;100217.47;5095110;28;20200;-75
2023/09/23 05:00:37;;;;;;;3.00;2.80;;;;;;;12.84;81.08;100227.22;5095054;28;20196;-75
2023/09/23 05:03:08;;;;;;;3.40;3.10;;;;;;;12.81;80.32;100228.38;5094951;28;20315;-75
2023/09/23 05:05:37;;;;;;;3.87;3.13;;;;;;;12.74;81.31;100232.84;5094696;28;20193;-75
2023/09/23 05:08:09;;;;;;;2.77;2.57;;;;;;;12.74;81.65;100240.09;5094873;28;20301;-75
2023/09/23 05:10:41;;;;;;;3.33;3.03;;;;;;;12.70;81.39;100242.31;5094468;28;20225;-75
2023/09/23 05:13:10;;;;;;;4.70;2.70;;;;;;;12.75;81.46;100244.44;5094755;28;20307;-75
2023/09/23 05:15:38;;;;;;;2.70;2.50;;;;;;;12.70;82.31;100253.88;5094498;28;20205;-75
2023/09/23 05:18:08;;;;;;;3.30;3.00;;;;;;;12.77;82.12;100259.34;5094768;28;20208;-75
2023/09/23 05:20:36;;;;;;;3.37;3.07;;;;;;;12.70;81.81;100256.56;5094682;28;20207;-75
2023/09/23 05:23:06;;;;;;;3.87;3.27;;;;;;;12.68;82.49;100272.03;5094639;28;20483;-75
2023/09/23 05:25:36;;;;;;;3.20;2.90;;;;;;;12.66;82.31;100270.56;5094328;28;20261;-75
2023/09/23 05:28:07;;;;;;;4.03;3.40;;;;;;;12.70;82.50;100264.59;5094256;28;20209;-75
2023/09/23 05:30:38;;;;;;;2.97;2.77;;;;;;;12.73;81.90;100259.91;5094270;28;20553;-75
2023/09/23 05:33:06;;;;;;;3.87;3.57;;;;;;;12.65;83.04;100266.19;5094445;28;20263;-75
2023/09/23 05:35:37;;;;;;;3.73;3.43;;;;;;;12.58;82.94;100271.47;5094440;28;20200;-75
2023/09/23 05:38:07;;;;;;;4.17;3.73;;;;;;;12.65;83.33;100276.94;5094430;28;20189;-75
2023/09/23 05:40:37;;;;;;;4.67;3.50;;;;;;;12.56;83.21;100278.91;5093963;28;20563;-75
2023/09/23 05:43:07;;;;;;;4.00;3.70;;;;;;;12.59;83.98;100283.91;5094007;28;20294;-75
2023/09/23 05:45:37;;;;;;;4.07;3.77;;;;;;;12.54;83.94;100280.91;5094078;28;20248;-75
2023/09/23 05:48:06;;;;;;;4.13;3.73;;;;;;;12.58;83.74;100287.59;5094341;28;20232;-75
2023/09/23 05:50:36;;;;;;;5.57;4.27;;;;;;;12.52;84.01;100288.34;5094040;28;20252;-75
2023/09/23 05:53:05;;;;;;;3.70;3.40;;;;;;;12.60;83.72;100292.78;5094072;28;20233;-75
2023/09/23 05:55:33;;;;;;;5.13;4.20;;;;;;;12.59;84.07;100294.63;5094084;28;20216;-75
2023/09/23 05:58:02;;;;;;;3.93;3.63;;;;;;;12.55;83.74;100297.88;5094218;28;20201;-75
2023/09/23 06:00:32;;;;;;;5.77;4.53;;;;;;;12.53;84.22;100306.13;5094002;28;20239;-75
2023/09/23 06:03:00;;;;;;;4.80;4.33;;;;;;;12.56;83.91;100311.13;5093956;28;20228;-75
2023/09/23 06:05:29;;;;;;;5.53;5.07;;;;;;;12.56;84.12;100308.44;5093942;28;20209;-75
2023/09/23 06:07:57;;;;;;;4.50;4.10;;;;;;;12.60;84.20;100308.91;5093453;28;20226;-75
2023/09/23 06:10:26;;;;;;;5.03;4.53;;;;;;;12.66;83.39;100319.75;5093869;28;20205;-75
2023/09/23 06:12:55;;;;;;;4.97;4.57;;;;;;;12.69;83.99;100319.38;5093792;28;20319;-75
2023/09/23 06:15:23;;;;;;;6.07;5.40;;;;;;;12.74;83.26;100323.38;5093878;28;20273;-75
2023/09/23 06:17:53;;;;;;;6.20;5.70;;;;;;;12.71;82.83;100325.38;5093763;28;20287;-75
2023/09/23 06:20:22;;;;;;;5.63;5.13;;;;;;;12.77;82.76;100328.38;5093371;28;20671;-75
2023/09/23 06:22:50;;;;;;;6.07;5.47;;;;;;;12.79;82.66;100326.31;5093602;28;20200;-75
2023/09/23 06:25:19;;;;;;;5.80;5.20;;;;;;;12.79;81.49;100339.75;5093384;28;20661;-75
2023/09/23 06:27:48;;;;;;;5.53;5.13;;;;;;;12.79;81.16;100337.91;5093197;28;20728;-75
2023/09/23 06:30:17;;;;;;;5.07;4.67;;;;;;;12.73;80.97;100343.16;5093634;28;20287;-75
2023/09/23 06:32:47;;;;;;;5.50;5.00;;;;;;;12.74;80.35;100340.28;5093181;28;20209;-75
2023/09/23 06:35:19;;;;;;;5.50;4.70;;;;;;;12.79;81.03;100345.94;5093554;28;20303;-75
2023/09/23 06:37:48;;;;;;;5.33;4.87;;;;;;;12.81;80.80;100353.84;5094130;28;20269;-75
2023/09/23 06:40:16;;;;;;;5.43;4.90;;;;;;;12.83;80.17;100355.31;5093264;28;20623;-75
2023/09/23 06:42:47;;;;;;;5.13;4.70;;;;;;;12.86;79.96;100362.16;5093374;28;20265;-75
2023/09/23 06:45:15;;;;;;;6.07;5.57;;;;;;;12.84;80.51;100372.28;5093232;28;20765;-75
2023/09/23 06:47:44;;;;;;;6.00;5.50;;;;;;;12.88;80.32;100368.19;5093348;28;20271;-75
2023/09/23 06:50:13;;;;;;;6.53;5.93;;;;;;;12.91;80.59;100370.53;5093217;28;20212;-75
2023/09/23 06:52:44;;;;;;;7.57;6.87;;;;;;;12.86;80.07;100367.53;5093338;28;20213;-75
2023/09/23 06:55:13;;;;;;;6.73;6.13;;;;;;;12.92;80.50;100375.69;5093423;28;20285;-75
2023/09/23 06:57:41;;;;;;;6.43;5.87;;;;;;;12.96;80.03;100376.16;5097446;28;20283;-75
2023/09/23 07:00:11;;;;;;;7.50;6.87;;;;;;;12.96;80.47;100381.53;5097318;28;20212;-75
2023/09/23 07:02:39;;;;;;;9.07;8.17;;;;;;;12.98;80.40;100395.66;5097303;28;20200;-75
2023/09/23 07:05:09;;;;;;;8.10;7.40;;;;;;;13.03;80.08;100398.59;5097333;28;20620;-75
2023/09/23 07:07:38;;;;;;;8.33;7.53;;;;;;;12.97;79.78;100386.75;5096729;28;20785;-75
2023/09/23 07:10:08;;;;;;;9.07;7.37;;;;;;;12.98;79.69;100395.66;5097231;28;20208;-75
2023/09/23 07:12:37;;;;;;;8.47;7.77;;;;;;;13.01;79.36;100384.53;5096794;28;20208;-75
2023/09/23 07:15:06;;;;;;;8.97;8.07;;;;;;;13.04;78.50;100397.59;5097163;28;20295;-75
2023/09/23 07:17:35;;;;;;;7.97;7.27;;;;;;;13.07;78.85;100399.91;5097029;28;20211;-75
2023/09/23 07:20:04;;;;;;;8.67;7.80;;;;;;;13.06;78.10;100399.06;5096808;28;20745;-75
2023/09/23 07:22:33;;;;;;;9.37;8.27;;;;;;;13.07;78.56;100410.66;5096648;28;20589;-75
2023/09/23 07:25:03;;;;;;;8.47;7.77;;;;;;;13.13;78.29;100407.25;5097029;28;20208;-75
2023/09/23 07:27:33;;;;;;;8.87;8.10;;;;;;;13.18;78.27;100415.63;5096551;28;20243;-75
2023/09/23 07:30:01;;;;;;;9.27;8.37;;;;;;;13.19;76.62;100419.94;5096567;28;20291;-75
2023/09/23 07:32:30;;;;;;;8.60;7.80;;;;;;;13.25;76.55;100427.28;5096521;28;20671;-75
2023/09/23 07:34:59;;;;;;;9.10;7.87;;;;;;;13.32;76.44;100430.88;5096711;28;20225;-75
2023/09/23 07:37:27;;;;;;;9.40;8.50;;;;;;;13.36;75.85;100442.09;5096719;28;20221;-75
2023/09/23 07:39:56;;;;;;;9.63;8.63;;;;;;;13.44;76.54;100453.63;5096043;28;20726;-77
2023/09/23 07:42:24;;;;;;;9.97;9.00;;;;;;;13.47;76.72;100450.56;5096847;28;20300;-76
2023/09/23 07:44:54;;;;;;;9.70;8.80;;;;;;;13.51;76.59;100461.78;5096590;28;20256;-77
2023/09/23 07:47:23;;;;;;;10.07;9.00;;;;;;;13.59;76.88;100475.97;5096021;28;20259;-77
2023/09/23 07:49:51;;;;;;;9.43;8.37;;;;;;;13.60;75.32;100474.94;5096475;28;20900;-76
2023/09/23 07:52:20;;;;;;;10.40;7.73;;;;;;;13.67;75.53;100470.47;5096514;28;20197;-76
2023/09/23 07:54:48;;;;;;;9.03;8.13;;;;;;;13.75;76.10;100485.69;5096265;28;20229;-77
2023/09/23 07:57:17;;;;;;;10.07;7.47;;;;;;;13.78;75.45;100489.84;5096150;28;20233;-77
2023/09/23 07:59:45;;;;;;;8.10;7.30;;;;;;;13.79;75.49;100486.16;5095907;28;20742;-77
2023/09/23 08:02:15;;;;;;;8.87;7.47;;;;;;;13.76;75.54;100497.28;5095199;28;20204;-64
2023/09/23 08:04:44;;;;;;;8.00;7.03;;;;;;;13.70;75.42;100494.31;5095868;28;20275;-63
2023/09/23 08:07:13;;;;;;;10.90;7.07;;;;;;;13.68;75.22;100490.16;5095602;28;20200;-63
2023/09/23 08:09:41;;;;;;;7.17;6.47;;;;;;;13.71;75.54;100496.00;5095829;28;20282;-76
2023/09/23 08:12:10;;;;;;;7.77;6.97;;;;;;;13.69;76.36;100503.44;5095845;28;20295;-76
2023/09/23 08:14:38;;;;;;;17.47;7.23;;;;;;;13.71;76.56;100509.44;5095988;28;20315;-76
2023/09/23 08:17:07;;;;;;;8.07;6.13;;;;;;;13.68;76.06;100512.50;5095657;28;20281;-76
2023/09/23 08:19:37;;;;;;;8.43;6.27;;;;;;;13.66;76.07;100513.72;5095610;28;20201;-76
2023/09/23 08:22:05;;;;;;;7.83;5.57;;;;;;;13.70;75.69;100520.38;5095401;28;20299;-77
2023/09/23 08:24:34;;;;;;;6.10;5.50;;;;;;;13.77;75.65;100526.69;5095721;28;20231;-77
2023/09/23 08:27:05;;;;;;;6.00;5.20;;;;;;;13.88;74.84;100537.00;5095786;28;20295;-77
2023/09/23 08:29:33;;;;;;;5.63;4.90;;;;;;;13.99;74.74;100535.69;5095680;28;20315;-77
2023/09/23 08:32:02;;;;;;;5.13;4.70;;;;;;;14.13;74.74;100549.13;5095715;28;20267;-77
2023/09/23 08:34:30;;;;;;;7.67;4.50;;;;;;;14.22;73.83;100547.16;5095548;28;20224;-77
2023/09/23 08:37:00;;;;;;;5.47;4.10;;;;;;;14.30;74.15;100548.91;5095649;28;20251;-77
2023/09/23 08:39:29;;;;;;;5.47;4.13;;;;;;;14.32;74.73;100552.25;5095283;28;20581;-77
2023/09/23 08:41:58;;;;;;;5.20;4.20;;;;;;;14.37;74.17;100558.78;5095359;28;20304;-77
2023/09/23 08:44:30;;;;;;;6.47;4.00;;;;;;;14.46;74.09;100565.72;5095420;28;20256;-77
2023/09/23 08:46:58;;;;;;;6.93;3.40;;;;;;;14.61;72.97;100558.44;5095279;28;20234;-76
2023/09/23 08:49:29;;;;;;;4.73;3.40;;;;;;;14.70;72.87;100573.44;5095150;28;20235;-77
2023/09/23 08:51:59;;;;;;;4.57;3.70;;;;;;;14.64;72.47;100563.44;5095341;28;20288;-77
2023/09/23 08:54:28;;;;;;;4.47;3.30;;;;;;;14.64;73.17;100584.16;5094875;28;20707;-77
2023/09/23 08:56:58;;;;;;;5.00;3.83;;;;;;;14.62;72.41;100580.84;5094744;28;20201;-77
2023/09/23 08:59:27;;;;;;;3.20;2.90;;;;;;;14.63;72.47;100582.47;5095151;28;20296;-77
2023/09/23 09:01:56;;;;;;;4.67;3.27;;;;;;;14.69;74.07;100574.47;5094826;28;20666;-77
2023/09/23 09:04:25;;;;;;;4.57;3.67;;;;;;;14.68;72.55;100591.69;5094964;28;20225;-77
2023/09/23 09:06:55;;;;;;;5.27;3.33;;;;;;;14.74;73.65;100590.06;5094999;28;20291;-77
2023/09/23 09:09:25;;;;;;;5.20;2.67;;;;;;;14.76;73.25;100595.28;5094650;28;20728;-76
2023/09/23 09:11:55;;;;;;;5.30;2.70;;;;;;;14.63;73.66;100604.03;5094940;28;20299;-76
2023/09/23 09:14:24;;;;;;;4.80;2.80;;;;;;;14.59;73.61;100605.44;5094965;28;20255;-76
2023/09/23 09:16:53;;;;;;;6.47;3.60;;;;;;;14.59;74.30;100603.59;5095220;28;20213;-77
2023/09/23 09:19:21;;;;;;;4.47;2.80;;;;;;;14.55;74.03;100613.09;5094362;28;20209;-75
2023/09/23 09:21:51;;;;;;;6.63;3.00;;;;;;;14.52;73.93;100618.03;5094731;28;20232;-75
2023/09/23 09:24:22;;;;;;;4.37;2.70;;;;;;;14.46;74.11;100619.59;5093918;28;20233;-75
2023/09/23 09:26:52;;;;;;;5.00;2.80;;;;;;;14.44;73.71;100613.56;5094401;28;20349;-75
2023/09/23 09:29:21;;;;;;;4.77;2.50;;;;;;;14.50;74.36;100625.44;5093826;28;20802;-75
2023/09/23 09:31:51;;;;;;;5.87;2.60;;;;;;;14.47;73.81;100631.22;5093834;28;20258;-76
2023/09/23 09:34:24;;;;;;;6.47;2.53;;;;;;;14.50;74.21;100631.66;5093167;28;20233;-76
2023/09/23 09:36:57;;;;;;;6.20;2.70;;;;;;;14.53;74.60;100631.28;5093979;28;20188;-75
2023/09/23 09:39:29;;;;;;;7.40;2.73;;;;;;;14.56;74.57;100633.59;5094170;28;20238;-75
2023/09/23 09:42:03;;;;;;;4.53;2.63;;;;;;;14.60;74.93;100634.91;5094633;28;20200;-75
2023/09/23 09:44:34;;;;;;;6.77;2.90;;;;;;;14.61;74.29;100633.88;5094230;28;20315;-75
2023/09/23 09:47:03;;;;;;;3.73;2.70;;;;;;;14.61;74.07;100639.28;5094230;28;20211;-76
2023/09/23 09:49:34;;;;;;;7.23;2.57;;;;;;;14.66;73.80;100644.06;5093853;28;20605;-76
2023/09/23 09:52:03;;;;;;;4.30;2.47;;;;;;;14.73;74.09;100646.88;5093935;28;20189;-76
2023/09/23 09:54:32;;;;;;;5.20;2.30;;;;;;;14.77;74.44;100653.53;5094039;28;20267;-76
2023/09/23 09:57:02;;;;;;;6.13;2.30;;;;;;;14.81;72.62;100661.06;5093808;28;20670;-76
2023/09/23 09:59:32;;;;;;;4.37;2.40;;;;;;;14.84;72.89;100667.91;5093749;28;20871;-76
2023/09/23 10:02:03;;;;;;;4.80;2.40;;;;;;;14.84;71.98;100660.69;5093728;28;20620;-76
2023/09/23 10:04:33;;;;;;;3.47;2.30;;;;;;;14.82;71.14;100651.13;5093584;28;20745;-76
2023/09/23 10:07:06;;;;;;;6.60;2.63;;;;;;;14.81;70.77;100655.66;5093917;28;20216;-76
2023/09/23 10:09:38;;;;;;;4.70;2.27;;;;;;;14.90;71.32;100654.50;5093948;28;20209;-75
2023/09/23 10:12:09;;;;;;;5.97;2.40;;;;;;;14.97;71.65;100659.97;5093920;28;20193;-75
2023/09/23 10:14:38;;;;;;;2.70;2.30;;;;;;;15.01;70.09;100666.66;5093453;28;20602;-75
2023/09/23 10:17:09;;;;;;;5.17;2.40;;;;;;;15.03;69.92;100665.47;5093796;28;20200;-75
2023/09/23 10:19:41;;;;;;;4.63;2.43;;;;;;;15.15;70.22;100657.69;5093788;28;20268;-75
2023/09/23 10:22:17;;;;;;;5.43;2.33;;;;;;;15.25;68.98;100669.00;5093753;28;20247;-75
2023/09/23 10:24:46;;;;;;;5.67;2.17;;;;;;;15.31;69.60;100670.91;5093672;28;20657;-75
2023/09/23 10:27:21;;;;;;;3.83;2.40;;;;;;;15.38;68.62;100669.13;5093628;28;20250;-75
2023/09/23 10:29:50;;;;;;;3.77;2.43;;;;;;;15.41;69.33;100674.13;5093564;28;20237;-75
2023/09/23 10:32:19;;;;;;;6.40;2.60;;;;;;;15.60;68.49;100670.81;5093590;28;20259;-75
2023/09/23 10:34:49;;;;;;;2.90;2.30;;;;;;;15.63;68.95;100673.13;5093505;28;20225;-75
2023/09/23 10:37:32;;;;;;;5.30;2.93;;;;;;;15.72;69.02;100680.06;5093470;28;20568;-75
2023/09/23 10:40:12;;;;;;;3.57;2.27;;;;;;;15.78;67.84;100674.91;5093509;28;20197;-75
2023/09/23 10:42:44;;;;;;;5.53;2.43;;;;;;;15.83;67.71;100678.69;5093115;28;20653;-75
2023/09/23 10:45:16;;;;;;;4.53;2.90;;;;;;;15.82;66.23;100684.31;5093515;28;20548;-75
2023/09/23 10:47:45;;;;;;;6.50;2.80;;;;;;;15.72;65.56;100682.75;5093169;28;20639;-75
2023/09/23 10:50:14;;;;;;;14.87;8.83;;;;;;;15.78;66.70;100680.31;5093081;28;20320;-75
2023/09/23 10:52:42;;;;;;;10.77;5.73;;;;;;;15.71;66.13;100681.09;5093307;28;20219;-75
2023/09/23 10:55:11;;;;;;;9.10;5.13;;;;;;;15.76;66.96;100690.44;5093379;28;20214;-75
2023/09/23 10:57:41;;;;;;;8.03;4.83;;;;;;;15.72;66.44;100690.84;5093294;28;20295;-75
2023/09/23 11:00:16;;;;;;;9.87;5.17;;;;;;;15.80;66.91;100689.88;5093340;28;20224;-75
2023/09/23 11:02:50;;;;;;;4.27;2.80;;;;;;;15.82;65.79;100697.81;5093234;28;20189;-75
2023/09/23 11:05:21;;;;;;;6.07;2.57;;;;;;;15.81;65.78;100690.72;5093068;28;20196;-75
2023/09/23 11:07:54;;;;;;;5.13;2.73;;;;;;;15.97;65.51;100703.91;5093272;28;20189;-75
2023/09/23 11:10:23;;;;;;;5.03;2.53;;;;;;;16.27;65.01;100697.28;5093168;28;20208;-75
2023/09/23 11:12:55;;;;;;;3.33;2.50;;;;;;;16.40;64.41;100691.97;5093157;28;20300;-75
2023/09/23 11:15:24;;;;;;;4.07;2.60;;;;;;;16.29;63.71;100687.13;5093431;28;20208;-75
2023/09/23 11:17:55;;;;;;;5.07;2.73;;;;;;;16.32;64.91;100704.78;5093104;28;20255;-76
2023/09/23 11:20:29;;;;;;;5.10;2.67;;;;;;;16.41;64.47;100688.22;5092813;28;20599;-76
2023/09/23 11:23:03;;;;;;;4.50;2.67;;;;;;;16.71;65.64;100692.34;5092888;28;20235;-76
2023/09/23 11:25:36;;;;;;;3.97;2.30;;;;;;;16.80;64.31;100697.59;5093098;28;20192;-76
2023/09/23 11:28:06;;;;;;;3.80;2.13;;;;;;;16.69;63.25;100696.31;5093044;28;20247;-76
2023/09/23 11:30:35;;;;;;;5.00;3.07;;;;;;;16.72;64.74;100707.53;5092880;28;20231;-76
2023/09/23 11:33:03;;;;;;;5.00;2.67;;;;;;;16.93;64.70;100708.47;5092780;28;20235;-76
2023/09/23 11:35:33;;;;;;;4.90;2.50;;;;;;;17.02;63.80;100707.28;5092925;28;20201;-76
2023/09/23 11:38:02;;;;;;;3.80;2.33;;;;;;;17.20;62.37;100704.81;5092872;28;20282;-76